sensor_id;sensor_type;location;lat;lon;timestamp;P1;durP1;ratioP1;P2;durP2;ratioP2
34765;SDS011;20984;43.508;1.504;2023-07-02T00:02:20;14.68;;;7.97;;
34765;SDS011;20984;43.508;1.504;2023-07-02T00:04:47;10.50;;;7.65;;
34765;SDS011;20984;43.508;1.504;2023-07-02T00:07:13;13.27;;;7.22;;
34765;SDS011;20984;43.508;1.504;2023-07-02T00:09:39;13.82;;;8.70;;
34765;SDS011;20984;43.508;1.504;2023-07-02T00:12:05;13.05;;;7.85;;
34765;SDS011;20984;43.508;1.504;2023-07-02T00:14:31;20.48;;;8.85;;
34765;SDS011;20984;43.508;1.504;2023-07-02T00:16:57;13.07;;;8.25;;
34765;SDS011;20984;43.508;1.504;2023-07-02T00:19:23;13.95;;;8.45;;
34765;SDS011;20984;43.508;1.504;2023-07-02T00:21:49;15.30;;;8.80;;
34765;SDS011;20984;43.508;1.504;2023-07-02T00:24:14;16.17;;;8.63;;
34765;SDS011;20984;43.508;1.504;2023-07-02T00:26:41;13.88;;;7.35;;
34765;SDS011;20984;43.508;1.504;2023-07-02T00:29:07;13.98;;;8.23;;
34765;SDS011;20984;43.508;1.504;2023-07-02T00:31:34;14.88;;;9.43;;
34765;SDS011;20984;43.508;1.504;2023-07-02T00:34:01;16.45;;;9.18;;
34765;SDS011;20984;43.508;1.504;2023-07-02T00:36:27;17.58;;;9.25;;
34765;SDS011;20984;43.508;1.504;2023-07-02T00:38:56;11.93;;;8.10;;
34765;SDS011;20984;43.508;1.504;2023-07-02T00:41:22;17.10;;;9.63;;
34765;SDS011;20984;43.508;1.504;2023-07-02T00:43:48;12.13;;;8.15;;
34765;SDS011;20984;43.508;1.504;2023-07-02T00:46:15;14.00;;;9.32;;
34765;SDS011;20984;43.508;1.504;2023-07-02T00:48:48;14.80;;;9.60;;
34765;SDS011;20984;43.508;1.504;2023-07-02T00:53:52;12.30;;;8.52;;
34765;SDS011;20984;43.508;1.504;2023-07-02T00:56:19;16.95;;;9.65;;
34765;SDS011;20984;43.508;1.504;2023-07-02T00:58:46;16.92;;;9.38;;
34765;SDS011;20984;43.508;1.504;2023-07-02T01:01:14;16.27;;;10.45;;
34765;SDS011;20984;43.508;1.504;2023-07-02T01:03:53;17.38;;;10.77;;
34765;SDS011;20984;43.508;1.504;2023-07-02T01:09:01;16.93;;;9.63;;
34765;SDS011;20984;43.508;1.504;2023-07-02T01:11:34;17.50;;;10.70;;
34765;SDS011;20984;43.508;1.504;2023-07-02T01:14:22;18.58;;;9.50;;
34765;SDS011;20984;43.508;1.504;2023-07-02T01:16:51;16.55;;;8.57;;
34765;SDS011;20984;43.508;1.504;2023-07-02T01:22:26;13.02;;;8.68;;
34765;SDS011;20984;43.508;1.504;2023-07-02T01:24:53;15.35;;;9.77;;
34765;SDS011;20984;43.508;1.504;2023-07-02T01:27:20;12.80;;;8.75;;
34765;SDS011;20984;43.508;1.504;2023-07-02T01:29:46;12.90;;;8.18;;
34765;SDS011;20984;43.508;1.504;2023-07-02T01:32:15;13.98;;;8.25;;
34765;SDS011;20984;43.508;1.504;2023-07-02T01:34:41;15.05;;;7.78;;
34765;SDS011;20984;43.508;1.504;2023-07-02T01:37:13;14.85;;;8.65;;
34765;SDS011;20984;43.508;1.504;2023-07-02T01:39:43;17.85;;;9.10;;
34765;SDS011;20984;43.508;1.504;2023-07-02T01:42:10;16.02;;;7.68;;
34765;SDS011;20984;43.508;1.504;2023-07-02T01:44:36;12.05;;;8.05;;
34765;SDS011;20984;43.508;1.504;2023-07-02T01:47:03;14.93;;;7.80;;
34765;SDS011;20984;43.508;1.504;2023-07-02T01:49:29;13.18;;;8.43;;
34765;SDS011;20984;43.508;1.504;2023-07-02T01:51:55;16.90;;;7.82;;
34765;SDS011;20984;43.508;1.504;2023-07-02T01:54:22;15.13;;;8.05;;
34765;SDS011;20984;43.508;1.504;2023-07-02T01:56:52;15.20;;;9.13;;
34765;SDS011;20984;43.508;1.504;2023-07-02T01:59:18;19.20;;;9.43;;
34765;SDS011;20984;43.508;1.504;2023-07-02T02:01:43;18.05;;;9.20;;
34765;SDS011;20984;43.508;1.504;2023-07-02T02:04:10;11.15;;;8.13;;
34765;SDS011;20984;43.508;1.504;2023-07-02T02:06:36;13.82;;;8.52;;
34765;SDS011;20984;43.508;1.504;2023-07-02T02:09:02;19.88;;;9.65;;
34765;SDS011;20984;43.508;1.504;2023-07-02T02:11:29;13.77;;;8.75;;
34765;SDS011;20984;43.508;1.504;2023-07-02T02:13:56;16.80;;;9.55;;
34765;SDS011;20984;43.508;1.504;2023-07-02T02:16:22;14.70;;;9.35;;
34765;SDS011;20984;43.508;1.504;2023-07-02T02:18:48;13.82;;;8.95;;
34765;SDS011;20984;43.508;1.504;2023-07-02T02:21:17;17.13;;;8.90;;
34765;SDS011;20984;43.508;1.504;2023-07-02T02:23:43;16.35;;;9.48;;
34765;SDS011;20984;43.508;1.504;2023-07-02T02:26:09;19.98;;;9.02;;
34765;SDS011;20984;43.508;1.504;2023-07-02T02:28:35;14.25;;;9.48;;
34765;SDS011;20984;43.508;1.504;2023-07-02T02:31:01;16.65;;;9.27;;
34765;SDS011;20984;43.508;1.504;2023-07-02T02:33:27;15.15;;;8.15;;
34765;SDS011;20984;43.508;1.504;2023-07-02T02:35:53;14.63;;;9.30;;
34765;SDS011;20984;43.508;1.504;2023-07-02T02:38:19;15.52;;;9.35;;
34765;SDS011;20984;43.508;1.504;2023-07-02T02:40:44;18.27;;;10.25;;
34765;SDS011;20984;43.508;1.504;2023-07-02T02:43:10;16.65;;;9.90;;
34765;SDS011;20984;43.508;1.504;2023-07-02T02:45:36;15.50;;;9.90;;
34765;SDS011;20984;43.508;1.504;2023-07-02T02:48:01;19.92;;;10.48;;
34765;SDS011;20984;43.508;1.504;2023-07-02T02:50:27;19.85;;;9.63;;
34765;SDS011;20984;43.508;1.504;2023-07-02T02:52:53;14.98;;;9.05;;
34765;SDS011;20984;43.508;1.504;2023-07-02T02:55:18;20.10;;;9.18;;
34765;SDS011;20984;43.508;1.504;2023-07-02T02:57:44;16.67;;;9.40;;
34765;SDS011;20984;43.508;1.504;2023-07-02T03:00:10;15.00;;;9.88;;
34765;SDS011;20984;43.508;1.504;2023-07-02T03:02:37;16.65;;;9.63;;
34765;SDS011;20984;43.508;1.504;2023-07-02T03:05:04;14.98;;;10.20;;
34765;SDS011;20984;43.508;1.504;2023-07-02T03:07:31;14.32;;;9.55;;
34765;SDS011;20984;43.508;1.504;2023-07-02T03:09:57;19.70;;;10.50;;
34765;SDS011;20984;43.508;1.504;2023-07-02T03:12:25;16.63;;;10.20;;
34765;SDS011;20984;43.508;1.504;2023-07-02T03:14:51;16.95;;;10.43;;
34765;SDS011;20984;43.508;1.504;2023-07-02T03:17:19;18.52;;;10.35;;
34765;SDS011;20984;43.508;1.504;2023-07-02T03:19:48;15.95;;;10.07;;
34765;SDS011;20984;43.508;1.504;2023-07-02T03:22:14;19.10;;;10.90;;
34765;SDS011;20984;43.508;1.504;2023-07-02T03:24:40;20.30;;;11.15;;
34765;SDS011;20984;43.508;1.504;2023-07-02T03:27:06;20.63;;;11.45;;
34765;SDS011;20984;43.508;1.504;2023-07-02T03:29:33;20.58;;;10.73;;
34765;SDS011;20984;43.508;1.504;2023-07-02T03:31:59;19.15;;;9.52;;
34765;SDS011;20984;43.508;1.504;2023-07-02T03:34:25;22.50;;;10.25;;
34765;SDS011;20984;43.508;1.504;2023-07-02T03:36:51;26.58;;;11.90;;
34765;SDS011;20984;43.508;1.504;2023-07-02T03:39:16;19.10;;;10.88;;
34765;SDS011;20984;43.508;1.504;2023-07-02T03:41:42;16.92;;;10.48;;
34765;SDS011;20984;43.508;1.504;2023-07-02T03:44:08;20.08;;;11.13;;
34765;SDS011;20984;43.508;1.504;2023-07-02T03:46:34;18.88;;;11.10;;
34765;SDS011;20984;43.508;1.504;2023-07-02T03:49:01;15.20;;;10.10;;
34765;SDS011;20984;43.508;1.504;2023-07-02T03:51:30;16.13;;;10.73;;
34765;SDS011;20984;43.508;1.504;2023-07-02T03:53:57;22.52;;;10.88;;
34765;SDS011;20984;43.508;1.504;2023-07-02T03:56:23;18.48;;;11.25;;
34765;SDS011;20984;43.508;1.504;2023-07-02T03:58:49;19.77;;;10.43;;
34765;SDS011;20984;43.508;1.504;2023-07-02T04:01:15;19.08;;;11.00;;
34765;SDS011;20984;43.508;1.504;2023-07-02T04:03:50;18.88;;;10.48;;
34765;SDS011;20984;43.508;1.504;2023-07-02T04:06:17;17.88;;;11.23;;
34765;SDS011;20984;43.508;1.504;2023-07-02T04:08:43;21.55;;;11.05;;
34765;SDS011;20984;43.508;1.504;2023-07-02T04:11:10;14.73;;;10.85;;
34765;SDS011;20984;43.508;1.504;2023-07-02T04:13:36;18.83;;;10.70;;
34765;SDS011;20984;43.508;1.504;2023-07-02T04:16:02;20.48;;;9.85;;
34765;SDS011;20984;43.508;1.504;2023-07-02T04:18:28;15.55;;;9.93;;
34765;SDS011;20984;43.508;1.504;2023-07-02T04:20:54;19.77;;;9.63;;
34765;SDS011;20984;43.508;1.504;2023-07-02T04:23:20;14.80;;;9.43;;
34765;SDS011;20984;43.508;1.504;2023-07-02T04:25:46;17.98;;;9.82;;
34765;SDS011;20984;43.508;1.504;2023-07-02T04:28:11;20.77;;;9.57;;
34765;SDS011;20984;43.508;1.504;2023-07-02T04:30:37;15.77;;;9.80;;
34765;SDS011;20984;43.508;1.504;2023-07-02T04:33:03;13.20;;;7.63;;
34765;SDS011;20984;43.508;1.504;2023-07-02T04:35:30;17.80;;;9.18;;
34765;SDS011;20984;43.508;1.504;2023-07-02T04:37:56;16.60;;;9.20;;
34765;SDS011;20984;43.508;1.504;2023-07-02T04:40:22;14.90;;;9.55;;
34765;SDS011;20984;43.508;1.504;2023-07-02T04:42:48;15.57;;;9.05;;
34765;SDS011;20984;43.508;1.504;2023-07-02T04:45:14;15.48;;;9.57;;
34765;SDS011;20984;43.508;1.504;2023-07-02T04:47:44;13.00;;;8.43;;
34765;SDS011;20984;43.508;1.504;2023-07-02T04:50:10;13.60;;;7.43;;
34765;SDS011;20984;43.508;1.504;2023-07-02T04:52:36;16.20;;;8.90;;
34765;SDS011;20984;43.508;1.504;2023-07-02T04:55:03;14.30;;;8.68;;
34765;SDS011;20984;43.508;1.504;2023-07-02T04:57:29;13.90;;;9.18;;
34765;SDS011;20984;43.508;1.504;2023-07-02T04:59:55;12.75;;;8.25;;
34765;SDS011;20984;43.508;1.504;2023-07-02T05:02:21;15.00;;;8.23;;
34765;SDS011;20984;43.508;1.504;2023-07-02T05:04:47;14.93;;;8.52;;
34765;SDS011;20984;43.508;1.504;2023-07-02T05:07:12;12.82;;;8.35;;
34765;SDS011;20984;43.508;1.504;2023-07-02T05:09:38;16.95;;;9.60;;
34765;SDS011;20984;43.508;1.504;2023-07-02T05:12:03;15.73;;;7.35;;
34765;SDS011;20984;43.508;1.504;2023-07-02T05:14:29;13.13;;;7.65;;
34765;SDS011;20984;43.508;1.504;2023-07-02T05:16:55;13.18;;;7.22;;
34765;SDS011;20984;43.508;1.504;2023-07-02T05:19:21;13.35;;;7.47;;
34765;SDS011;20984;43.508;1.504;2023-07-02T05:21:46;10.43;;;7.82;;
34765;SDS011;20984;43.508;1.504;2023-07-02T05:24:12;13.95;;;7.43;;
34765;SDS011;20984;43.508;1.504;2023-07-02T05:26:37;12.30;;;7.50;;
34765;SDS011;20984;43.508;1.504;2023-07-02T05:29:03;12.73;;;6.65;;
34765;SDS011;20984;43.508;1.504;2023-07-02T05:31:30;11.43;;;7.38;;
34765;SDS011;20984;43.508;1.504;2023-07-02T05:33:56;10.80;;;7.00;;
34765;SDS011;20984;43.508;1.504;2023-07-02T05:36:22;10.05;;;6.47;;
34765;SDS011;20984;43.508;1.504;2023-07-02T05:38:48;13.45;;;6.85;;
34765;SDS011;20984;43.508;1.504;2023-07-02T05:41:22;10.52;;;6.78;;
34765;SDS011;20984;43.508;1.504;2023-07-02T05:43:48;9.45;;;6.20;;
34765;SDS011;20984;43.508;1.504;2023-07-02T05:46:14;12.43;;;6.45;;
34765;SDS011;20984;43.508;1.504;2023-07-02T05:48:43;13.38;;;6.60;;
34765;SDS011;20984;43.508;1.504;2023-07-02T05:51:08;10.48;;;5.35;;
34765;SDS011;20984;43.508;1.504;2023-07-02T05:53:34;11.00;;;5.93;;
34765;SDS011;20984;43.508;1.504;2023-07-02T05:56:02;10.70;;;5.63;;
34765;SDS011;20984;43.508;1.504;2023-07-02T05:58:27;10.30;;;5.55;;
34765;SDS011;20984;43.508;1.504;2023-07-02T06:00:55;8.35;;;5.40;;
34765;SDS011;20984;43.508;1.504;2023-07-02T06:03:20;10.77;;;6.28;;
34765;SDS011;20984;43.508;1.504;2023-07-02T06:05:50;10.43;;;5.72;;
34765;SDS011;20984;43.508;1.504;2023-07-02T06:08:16;9.88;;;5.47;;
34765;SDS011;20984;43.508;1.504;2023-07-02T06:10:43;6.93;;;4.97;;
34765;SDS011;20984;43.508;1.504;2023-07-02T06:13:11;7.78;;;5.43;;
34765;SDS011;20984;43.508;1.504;2023-07-02T06:15:37;7.68;;;4.57;;
34765;SDS011;20984;43.508;1.504;2023-07-02T06:18:02;10.13;;;4.78;;
34765;SDS011;20984;43.508;1.504;2023-07-02T06:20:28;7.88;;;4.95;;
34765;SDS011;20984;43.508;1.504;2023-07-02T06:22:54;9.65;;;5.15;;
34765;SDS011;20984;43.508;1.504;2023-07-02T06:25:19;8.38;;;5.30;;
34765;SDS011;20984;43.508;1.504;2023-07-02T06:27:45;5.82;;;3.88;;
34765;SDS011;20984;43.508;1.504;2023-07-02T06:30:11;7.70;;;4.88;;
34765;SDS011;20984;43.508;1.504;2023-07-02T06:32:37;10.52;;;4.85;;
34765;SDS011;20984;43.508;1.504;2023-07-02T06:35:03;10.18;;;4.47;;
34765;SDS011;20984;43.508;1.504;2023-07-02T06:37:31;9.60;;;4.55;;
34765;SDS011;20984;43.508;1.504;2023-07-02T06:39:57;7.00;;;4.20;;
34765;SDS011;20984;43.508;1.504;2023-07-02T06:42:22;10.55;;;5.30;;
34765;SDS011;20984;43.508;1.504;2023-07-02T06:44:49;6.40;;;4.63;;
34765;SDS011;20984;43.508;1.504;2023-07-02T06:47:14;10.57;;;4.57;;
34765;SDS011;20984;43.508;1.504;2023-07-02T06:49:40;5.95;;;4.05;;
34765;SDS011;20984;43.508;1.504;2023-07-02T06:52:06;7.88;;;3.92;;
34765;SDS011;20984;43.508;1.504;2023-07-02T06:54:31;8.80;;;5.00;;
34765;SDS011;20984;43.508;1.504;2023-07-02T06:56:57;6.07;;;4.10;;
34765;SDS011;20984;43.508;1.504;2023-07-02T06:59:22;7.03;;;4.50;;
34765;SDS011;20984;43.508;1.504;2023-07-02T07:01:49;6.70;;;4.50;;
34765;SDS011;20984;43.508;1.504;2023-07-02T07:04:15;8.32;;;4.03;;
34765;SDS011;20984;43.508;1.504;2023-07-02T07:06:41;6.63;;;4.10;;
34765;SDS011;20984;43.508;1.504;2023-07-02T07:09:07;9.00;;;4.45;;
34765;SDS011;20984;43.508;1.504;2023-07-02T07:11:33;6.00;;;3.72;;
34765;SDS011;20984;43.508;1.504;2023-07-02T07:13:59;7.53;;;3.80;;
34765;SDS011;20984;43.508;1.504;2023-07-02T07:16:25;8.02;;;3.88;;
34765;SDS011;20984;43.508;1.504;2023-07-02T07:18:50;9.90;;;3.75;;
34765;SDS011;20984;43.508;1.504;2023-07-02T07:21:16;9.05;;;4.13;;
34765;SDS011;20984;43.508;1.504;2023-07-02T07:23:42;5.97;;;3.30;;
34765;SDS011;20984;43.508;1.504;2023-07-02T07:26:07;5.13;;;3.42;;
34765;SDS011;20984;43.508;1.504;2023-07-02T07:28:33;6.53;;;4.00;;
34765;SDS011;20984;43.508;1.504;2023-07-02T07:30:59;8.18;;;3.35;;
34765;SDS011;20984;43.508;1.504;2023-07-02T07:33:24;9.93;;;3.40;;
34765;SDS011;20984;43.508;1.504;2023-07-02T07:35:50;4.63;;;3.35;;
34765;SDS011;20984;43.508;1.504;2023-07-02T07:38:16;5.93;;;3.40;;
34765;SDS011;20984;43.508;1.504;2023-07-02T07:40:42;6.47;;;3.10;;
34765;SDS011;20984;43.508;1.504;2023-07-02T07:43:08;6.15;;;3.38;;
34765;SDS011;20984;43.508;1.504;2023-07-02T07:45:34;5.07;;;3.60;;
34765;SDS011;20984;43.508;1.504;2023-07-02T07:47:59;6.60;;;3.40;;
34765;SDS011;20984;43.508;1.504;2023-07-02T07:50:25;6.95;;;3.25;;
34765;SDS011;20984;43.508;1.504;2023-07-02T07:52:51;7.65;;;3.58;;
34765;SDS011;20984;43.508;1.504;2023-07-02T07:55:17;4.32;;;3.28;;
34765;SDS011;20984;43.508;1.504;2023-07-02T07:57:43;6.13;;;3.08;;
34765;SDS011;20984;43.508;1.504;2023-07-02T08:00:08;4.75;;;3.50;;
34765;SDS011;20984;43.508;1.504;2023-07-02T08:02:35;6.03;;;4.32;;
34765;SDS011;20984;43.508;1.504;2023-07-02T08:05:01;4.90;;;2.63;;
34765;SDS011;20984;43.508;1.504;2023-07-02T08:07:27;3.97;;;3.30;;
34765;SDS011;20984;43.508;1.504;2023-07-02T08:09:53;4.28;;;3.13;;
34765;SDS011;20984;43.508;1.504;2023-07-02T08:12:19;4.40;;;2.95;;
34765;SDS011;20984;43.508;1.504;2023-07-02T08:14:44;4.47;;;2.92;;
34765;SDS011;20984;43.508;1.504;2023-07-02T08:17:10;6.82;;;2.95;;
34765;SDS011;20984;43.508;1.504;2023-07-02T08:19:36;7.38;;;3.20;;
34765;SDS011;20984;43.508;1.504;2023-07-02T08:22:01;4.30;;;3.40;;
34765;SDS011;20984;43.508;1.504;2023-07-02T08:24:28;4.40;;;2.95;;
34765;SDS011;20984;43.508;1.504;2023-07-02T08:26:55;4.18;;;2.67;;
34765;SDS011;20984;43.508;1.504;2023-07-02T08:29:21;3.63;;;3.03;;
34765;SDS011;20984;43.508;1.504;2023-07-02T08:31:47;4.43;;;2.97;;
34765;SDS011;20984;43.508;1.504;2023-07-02T08:34:12;4.75;;;3.03;;
34765;SDS011;20984;43.508;1.504;2023-07-02T08:36:38;5.18;;;3.22;;
34765;SDS011;20984;43.508;1.504;2023-07-02T08:39:04;3.45;;;2.85;;
34765;SDS011;20984;43.508;1.504;2023-07-02T08:41:30;6.07;;;3.40;;
34765;SDS011;20984;43.508;1.504;2023-07-02T08:44:06;6.25;;;3.13;;
34765;SDS011;20984;43.508;1.504;2023-07-02T08:46:32;5.55;;;3.28;;
34765;SDS011;20984;43.508;1.504;2023-07-02T08:48:57;5.38;;;3.05;;
34765;SDS011;20984;43.508;1.504;2023-07-02T08:51:23;5.80;;;3.28;;
34765;SDS011;20984;43.508;1.504;2023-07-02T08:53:49;5.78;;;3.15;;
34765;SDS011;20984;43.508;1.504;2023-07-02T08:56:14;5.22;;;3.50;;
34765;SDS011;20984;43.508;1.504;2023-07-02T08:58:40;4.60;;;3.58;;
34765;SDS011;20984;43.508;1.504;2023-07-02T09:01:06;4.25;;;3.55;;
34765;SDS011;20984;43.508;1.504;2023-07-02T09:03:34;5.60;;;3.88;;
34765;SDS011;20984;43.508;1.504;2023-07-02T09:06:02;4.82;;;3.95;;
34765;SDS011;20984;43.508;1.504;2023-07-02T09:08:28;8.75;;;3.92;;
34765;SDS011;20984;43.508;1.504;2023-07-02T09:11:04;4.13;;;2.92;;
34765;SDS011;20984;43.508;1.504;2023-07-02T09:13:31;3.78;;;2.60;;
34765;SDS011;20984;43.508;1.504;2023-07-02T09:15:56;3.88;;;2.50;;
34765;SDS011;20984;43.508;1.504;2023-07-02T09:18:22;3.90;;;2.38;;
34765;SDS011;20984;43.508;1.504;2023-07-02T09:20:51;6.45;;;2.30;;
34765;SDS011;20984;43.508;1.504;2023-07-02T09:23:19;3.33;;;2.28;;
34765;SDS011;20984;43.508;1.504;2023-07-02T09:25:45;2.55;;;1.90;;
34765;SDS011;20984;43.508;1.504;2023-07-02T09:28:17;3.95;;;1.80;;
34765;SDS011;20984;43.508;1.504;2023-07-02T09:33:15;3.78;;;1.50;;
34765;SDS011;20984;43.508;1.504;2023-07-02T09:35:41;3.65;;;2.55;;
34765;SDS011;20984;43.508;1.504;2023-07-02T09:38:07;1.85;;;1.63;;
34765;SDS011;20984;43.508;1.504;2023-07-02T09:40:34;1.95;;;1.60;;
34765;SDS011;20984;43.508;1.504;2023-07-02T09:43:03;1.33;;;1.10;;
34765;SDS011;20984;43.508;1.504;2023-07-02T09:45:29;1.25;;;1.00;;
34765;SDS011;20984;43.508;1.504;2023-07-02T09:47:55;1.70;;;1.02;;
34765;SDS011;20984;43.508;1.504;2023-07-02T09:50:22;2.20;;;1.27;;
34765;SDS011;20984;43.508;1.504;2023-07-02T09:52:49;5.03;;;1.63;;
34765;SDS011;20984;43.508;1.504;2023-07-02T09:55:16;2.05;;;1.00;;
34765;SDS011;20984;43.508;1.504;2023-07-02T09:57:43;3.08;;;1.10;;
34765;SDS011;20984;43.508;1.504;2023-07-02T10:00:09;2.22;;;1.02;;
34765;SDS011;20984;43.508;1.504;2023-07-02T10:02:36;2.65;;;1.08;;
34765;SDS011;20984;43.508;1.504;2023-07-02T10:05:01;2.78;;;1.30;;
34765;SDS011;20984;43.508;1.504;2023-07-02T10:07:28;1.65;;;1.10;;
34765;SDS011;20984;43.508;1.504;2023-07-02T10:09:55;6.88;;;1.60;;
34765;SDS011;20984;43.508;1.504;2023-07-02T10:12:21;2.47;;;1.55;;
34765;SDS011;20984;43.508;1.504;2023-07-02T10:14:51;2.15;;;1.20;;
34765;SDS011;20984;43.508;1.504;2023-07-02T10:17:28;3.40;;;1.05;;
34765;SDS011;20984;43.508;1.504;2023-07-02T10:19:59;1.48;;;1.00;;
34765;SDS011;20984;43.508;1.504;2023-07-02T10:22:25;1.48;;;1.10;;
34765;SDS011;20984;43.508;1.504;2023-07-02T10:24:55;3.03;;;1.20;;
34765;SDS011;20984;43.508;1.504;2023-07-02T10:27:39;1.35;;;1.10;;
34765;SDS011;20984;43.508;1.504;2023-07-02T10:30:06;3.17;;;1.40;;
34765;SDS011;20984;43.508;1.504;2023-07-02T10:32:34;2.55;;;1.42;;
34765;SDS011;20984;43.508;1.504;2023-07-02T10:35:13;2.33;;;1.40;;
34765;SDS011;20984;43.508;1.504;2023-07-02T10:37:43;2.15;;;1.38;;
34765;SDS011;20984;43.508;1.504;2023-07-02T10:40:09;2.67;;;1.50;;
34765;SDS011;20984;43.508;1.504;2023-07-02T10:42:48;5.43;;;1.38;;
34765;SDS011;20984;43.508;1.504;2023-07-02T10:45:16;2.08;;;1.40;;
34765;SDS011;20984;43.508;1.504;2023-07-02T10:47:42;1.88;;;1.33;;
34765;SDS011;20984;43.508;1.504;2023-07-02T10:50:20;3.35;;;1.05;;
34765;SDS011;20984;43.508;1.504;2023-07-02T10:52:47;2.05;;;1.40;;
34765;SDS011;20984;43.508;1.504;2023-07-02T10:55:22;1.52;;;1.15;;
34765;SDS011;20984;43.508;1.504;2023-07-02T10:57:49;1.80;;;0.95;;
34765;SDS011;20984;43.508;1.504;2023-07-02T11:00:18;2.13;;;1.37;;
34765;SDS011;20984;43.508;1.504;2023-07-02T11:02:44;2.28;;;1.38;;
34765;SDS011;20984;43.508;1.504;2023-07-02T11:05:10;2.15;;;1.58;;
34765;SDS011;20984;43.508;1.504;2023-07-02T11:07:40;1.65;;;1.33;;
34765;SDS011;20984;43.508;1.504;2023-07-02T11:10:06;2.50;;;1.30;;
34765;SDS011;20984;43.508;1.504;2023-07-02T11:12:33;1.75;;;1.30;;
34765;SDS011;20984;43.508;1.504;2023-07-02T11:15:12;1.25;;;0.93;;
34765;SDS011;20984;43.508;1.504;2023-07-02T11:17:39;4.47;;;1.17;;
34765;SDS011;20984;43.508;1.504;2023-07-02T11:20:10;1.40;;;0.88;;
34765;SDS011;20984;43.508;1.504;2023-07-02T11:22:37;1.07;;;0.97;;
34765;SDS011;20984;43.508;1.504;2023-07-02T11:27:35;1.98;;;0.93;;
34765;SDS011;20984;43.508;1.504;2023-07-02T11:30:00;1.42;;;0.80;;
34765;SDS011;20984;43.508;1.504;2023-07-02T11:32:26;1.15;;;0.70;;
34765;SDS011;20984;43.508;1.504;2023-07-02T11:34:55;1.42;;;1.08;;
34765;SDS011;20984;43.508;1.504;2023-07-02T11:37:21;1.17;;;1.00;;
34765;SDS011;20984;43.508;1.504;2023-07-02T11:39:47;1.45;;;0.90;;
34765;SDS011;20984;43.508;1.504;2023-07-02T11:42:13;2.40;;;0.80;;
34765;SDS011;20984;43.508;1.504;2023-07-02T11:44:40;2.70;;;1.02;;
34765;SDS011;20984;43.508;1.504;2023-07-02T11:47:05;2.35;;;1.00;;
34765;SDS011;20984;43.508;1.504;2023-07-02T11:49:31;4.18;;;0.90;;
34765;SDS011;20984;43.508;1.504;2023-07-02T11:51:57;1.40;;;1.02;;
34765;SDS011;20984;43.508;1.504;2023-07-02T11:54:23;1.58;;;1.20;;
34765;SDS011;20984;43.508;1.504;2023-07-02T11:56:48;2.67;;;0.90;;
34765;SDS011;20984;43.508;1.504;2023-07-02T11:59:14;5.13;;;1.17;;
34765;SDS011;20984;43.508;1.504;2023-07-02T12:01:40;1.13;;;0.80;;
34765;SDS011;20984;43.508;1.504;2023-07-02T12:04:05;1.50;;;1.00;;
34765;SDS011;20984;43.508;1.504;2023-07-02T12:06:32;1.67;;;1.10;;
34765;SDS011;20984;43.508;1.504;2023-07-02T12:08:58;1.80;;;0.95;;
34765;SDS011;20984;43.508;1.504;2023-07-02T12:11:24;1.85;;;1.02;;
34765;SDS011;20984;43.508;1.504;2023-07-02T12:13:50;2.03;;;1.27;;
34765;SDS011;20984;43.508;1.504;2023-07-02T12:16:15;1.42;;;1.00;;
34765;SDS011;20984;43.508;1.504;2023-07-02T12:18:41;2.42;;;1.10;;
34765;SDS011;20984;43.508;1.504;2023-07-02T12:21:07;2.42;;;0.93;;
34765;SDS011;20984;43.508;1.504;2023-07-02T12:23:32;1.00;;;0.90;;
34765;SDS011;20984;43.508;1.504;2023-07-02T12:25:58;2.10;;;0.90;;
34765;SDS011;20984;43.508;1.504;2023-07-02T12:28:23;1.45;;;1.00;;
34765;SDS011;20984;43.508;1.504;2023-07-02T12:30:49;1.50;;;0.88;;
34765;SDS011;20984;43.508;1.504;2023-07-02T12:33:15;0.70;;;0.60;;
34765;SDS011;20984;43.508;1.504;2023-07-02T12:35:40;0.65;;;0.60;;
34765;SDS011;20984;43.508;1.504;2023-07-02T12:38:06;0.93;;;0.65;;
34765;SDS011;20984;43.508;1.504;2023-07-02T12:40:33;1.60;;;0.90;;
34765;SDS011;20984;43.508;1.504;2023-07-02T12:42:59;0.93;;;0.63;;
34765;SDS011;20984;43.508;1.504;2023-07-02T12:45:25;1.60;;;0.80;;
34765;SDS011;20984;43.508;1.504;2023-07-02T12:47:50;1.58;;;1.00;;
34765;SDS011;20984;43.508;1.504;2023-07-02T12:50:16;1.48;;;0.93;;
34765;SDS011;20984;43.508;1.504;2023-07-02T12:52:42;0.85;;;0.70;;
34765;SDS011;20984;43.508;1.504;2023-07-02T12:55:08;1.88;;;0.90;;
34765;SDS011;20984;43.508;1.504;2023-07-02T12:57:34;1.17;;;0.98;;
34765;SDS011;20984;43.508;1.504;2023-07-02T12:59:59;2.03;;;0.90;;
34765;SDS011;20984;43.508;1.504;2023-07-02T13:02:25;2.92;;;0.90;;
34765;SDS011;20984;43.508;1.504;2023-07-02T13:04:51;1.10;;;0.77;;
34765;SDS011;20984;43.508;1.504;2023-07-02T13:07:17;1.23;;;0.90;;
34765;SDS011;20984;43.508;1.504;2023-07-02T13:09:43;1.23;;;0.90;;
34765;SDS011;20984;43.508;1.504;2023-07-02T13:12:09;1.30;;;0.90;;
34765;SDS011;20984;43.508;1.504;2023-07-02T13:14:36;1.83;;;0.80;;
34765;SDS011;20984;43.508;1.504;2023-07-02T13:17:01;1.25;;;0.70;;
34765;SDS011;20984;43.508;1.504;2023-07-02T13:19:30;1.30;;;0.75;;
34765;SDS011;20984;43.508;1.504;2023-07-02T13:21:55;1.10;;;0.65;;
34765;SDS011;20984;43.508;1.504;2023-07-02T13:24:21;2.03;;;0.80;;
34765;SDS011;20984;43.508;1.504;2023-07-02T13:26:47;1.50;;;0.70;;
34765;SDS011;20984;43.508;1.504;2023-07-02T13:29:13;1.20;;;0.80;;
34765;SDS011;20984;43.508;1.504;2023-07-02T13:31:39;1.75;;;0.90;;
34765;SDS011;20984;43.508;1.504;2023-07-02T13:34:04;1.27;;;0.80;;
34765;SDS011;20984;43.508;1.504;2023-07-02T13:36:30;1.77;;;1.10;;
34765;SDS011;20984;43.508;1.504;2023-07-02T13:38:56;2.13;;;1.10;;
34765;SDS011;20984;43.508;1.504;2023-07-02T13:41:21;2.28;;;1.00;;
34765;SDS011;20984;43.508;1.504;2023-07-02T13:43:47;2.67;;;1.05;;
34765;SDS011;20984;43.508;1.504;2023-07-02T13:46:13;2.25;;;1.10;;
34765;SDS011;20984;43.508;1.504;2023-07-02T13:48:39;1.98;;;1.20;;
34765;SDS011;20984;43.508;1.504;2023-07-02T13:51:04;1.48;;;1.20;;
34765;SDS011;20984;43.508;1.504;2023-07-02T13:53:30;2.28;;;1.20;;
34765;SDS011;20984;43.508;1.504;2023-07-02T13:55:57;1.80;;;1.20;;
34765;SDS011;20984;43.508;1.504;2023-07-02T13:58:23;1.55;;;1.17;;
34765;SDS011;20984;43.508;1.504;2023-07-02T14:00:48;2.88;;;1.40;;
34765;SDS011;20984;43.508;1.504;2023-07-02T14:03:14;2.13;;;1.38;;
34765;SDS011;20984;43.508;1.504;2023-07-02T14:05:40;4.53;;;1.27;;
34765;SDS011;20984;43.508;1.504;2023-07-02T14:08:05;1.80;;;1.23;;
34765;SDS011;20984;43.508;1.504;2023-07-02T14:10:31;4.18;;;1.27;;
34765;SDS011;20984;43.508;1.504;2023-07-02T14:12:57;3.33;;;1.50;;
34765;SDS011;20984;43.508;1.504;2023-07-02T14:15:23;1.90;;;1.05;;
34765;SDS011;20984;43.508;1.504;2023-07-02T14:17:49;2.53;;;1.55;;
34765;SDS011;20984;43.508;1.504;2023-07-02T14:20:15;2.25;;;1.15;;
34765;SDS011;20984;43.508;1.504;2023-07-02T14:22:41;2.58;;;1.58;;
34765;SDS011;20984;43.508;1.504;2023-07-02T14:25:07;2.70;;;1.10;;
34765;SDS011;20984;43.508;1.504;2023-07-02T14:27:33;1.67;;;0.95;;
34765;SDS011;20984;43.508;1.504;2023-07-02T14:29:59;2.92;;;1.25;;
34765;SDS011;20984;43.508;1.504;2023-07-02T14:32:27;2.45;;;1.30;;
34765;SDS011;20984;43.508;1.504;2023-07-02T14:34:53;1.42;;;1.13;;
34765;SDS011;20984;43.508;1.504;2023-07-02T14:37:18;1.65;;;1.15;;
34765;SDS011;20984;43.508;1.504;2023-07-02T14:39:44;2.40;;;1.02;;
34765;SDS011;20984;43.508;1.504;2023-07-02T14:42:10;1.63;;;0.90;;
34765;SDS011;20984;43.508;1.504;2023-07-02T14:44:35;2.05;;;1.20;;
34765;SDS011;20984;43.508;1.504;2023-07-02T14:47:01;1.77;;;1.10;;
34765;SDS011;20984;43.508;1.504;2023-07-02T14:49:27;2.33;;;1.13;;
34765;SDS011;20984;43.508;1.504;2023-07-02T14:51:52;2.28;;;1.20;;